createdAt,value
2022-10-21T00:02:15.305Z,7.47
2022-10-21T00:04:43.148Z,7.15
2022-10-21T00:07:11.579Z,7.47
2022-10-21T00:09:39.536Z,7.60
2022-10-21T00:12:07.435Z,7.60
2022-10-21T00:14:35.413Z,6.70
2022-10-21T00:17:03.557Z,7.70
2022-10-21T00:19:32.805Z,6.63
2022-10-21T00:22:00.724Z,6.95
2022-10-21T00:24:28.617Z,7.13
2022-10-21T00:26:56.593Z,7.57
2022-10-21T00:29:24.610Z,6.50
2022-10-21T00:31:54.726Z,7.07
2022-10-21T00:34:25.913Z,6.85
2022-10-21T00:36:58.091Z,7.70
2022-10-21T00:39:28.794Z,7.35
2022-10-21T00:41:56.875Z,7.55
2022-10-21T00:44:26.785Z,6.65
2022-10-21T00:47:00.043Z,7.32
2022-10-21T00:49:37.189Z,8.13
2022-10-21T00:52:10.687Z,7.65
2022-10-21T00:54:40.016Z,6.53
2022-10-21T00:57:09.752Z,6.68
2022-10-21T00:59:42.142Z,7.88
2022-10-21T01:02:10.083Z,7.15
2022-10-21T01:04:38.448Z,7.20
2022-10-21T01:07:07.916Z,7.15
2022-10-21T01:09:35.974Z,6.97
2022-10-21T01:12:05.447Z,7.00
2022-10-21T01:14:54.123Z,7.35
2022-10-21T01:17:43.997Z,7.05
2022-10-21T01:20:55.565Z,6.93
2022-10-21T01:24:04.025Z,7.43
2022-10-21T01:27:00.314Z,7.63
2022-10-21T01:30:09.602Z,6.60
2022-10-21T01:32:52.473Z,6.85
2022-10-21T01:35:23.427Z,6.63
2022-10-21T01:38:00.913Z,6.97
2022-10-21T01:40:33.659Z,6.53
2022-10-21T01:43:06.971Z,6.95
2022-10-21T01:45:39.101Z,7.22
2022-10-21T01:48:11.790Z,7.25
2022-10-21T01:50:45.033Z,6.53
2022-10-21T01:53:16.927Z,6.53
2022-10-21T01:55:47.776Z,7.07
2022-10-21T01:58:19.829Z,6.32
2022-10-21T02:00:48.936Z,6.65
2022-10-21T02:03:24.028Z,7.05
2022-10-21T02:05:51.971Z,6.07
2022-10-21T02:08:20.267Z,6.75
2022-10-21T02:10:51.088Z,6.15
2022-10-21T02:13:25.801Z,5.82
2022-10-21T02:15:57.369Z,5.97
2022-10-21T02:18:27.726Z,6.47
2022-10-21T02:20:58.532Z,6.43
2022-10-21T02:23:43.768Z,6.07
2022-10-21T02:26:12.025Z,5.97
2022-10-21T02:31:28.971Z,5.57
2022-10-21T02:34:06.334Z,5.55
2022-10-21T02:36:44.154Z,5.72
2022-10-21T02:39:19.636Z,5.80
2022-10-21T02:41:51.185Z,5.55
2022-10-21T02:44:19.230Z,5.85
2022-10-21T02:46:49.081Z,6.10
2022-10-21T02:49:18.353Z,5.55
2022-10-21T02:51:46.956Z,4.93
2022-10-21T02:54:15.065Z,5.38
2022-10-21T02:56:43.457Z,4.78
2022-10-21T02:59:11.838Z,4.70
2022-10-21T03:01:39.809Z,5.07
2022-10-21T03:04:07.804Z,4.78
2022-10-21T03:06:37.124Z,4.32
2022-10-21T03:09:06.081Z,4.30
2022-10-21T03:11:34.074Z,4.20
2022-10-21T03:14:02.013Z,4.00
2022-10-21T03:16:29.921Z,4.75
2022-10-21T03:18:57.993Z,3.65
2022-10-21T03:21:26.150Z,4.25
2022-10-21T03:23:55.371Z,4.82
2022-10-21T03:26:23.409Z,4.40
2022-10-21T03:28:51.429Z,4.00
2022-10-21T03:31:19.362Z,3.85
2022-10-21T03:33:47.455Z,4.32
2022-10-21T03:36:15.418Z,4.30
2022-10-21T03:38:43.296Z,4.32
2022-10-21T03:41:12.948Z,5.28
2022-10-21T03:43:41.025Z,4.32
2022-10-21T03:46:09.034Z,4.88
2022-10-21T03:48:36.907Z,5.07
2022-10-21T03:51:05.123Z,4.13
2022-10-21T03:53:44.984Z,4.00
2022-10-21T03:56:14.904Z,5.00
2022-10-21T03:58:43.363Z,5.97
2022-10-21T04:01:13.851Z,4.97
2022-10-21T04:03:42.935Z,4.53
2022-10-21T04:06:10.799Z,4.68
2022-10-21T04:08:38.768Z,4.90
2022-10-21T04:11:06.914Z,4.43
2022-10-21T04:13:36.861Z,4.53
2022-10-21T04:16:07.788Z,4.00
2022-10-21T04:18:35.913Z,4.65
2022-10-21T04:21:03.856Z,4.30
2022-10-21T04:23:31.726Z,4.05
2022-10-21T04:25:59.713Z,5.15
2022-10-21T04:28:27.754Z,4.50
2022-10-21T04:30:57.050Z,5.22
2022-10-21T04:33:25.008Z,4.78
2022-10-21T04:35:54.717Z,4.72
2022-10-21T04:38:22.812Z,4.57
2022-10-21T04:40:56.690Z,4.35
2022-10-21T04:43:24.821Z,3.97
2022-10-21T04:45:52.719Z,4.10
2022-10-21T04:48:22.457Z,4.80
2022-10-21T04:50:50.646Z,4.22
2022-10-21T04:53:18.669Z,4.50
2022-10-21T04:55:46.741Z,4.07
2022-10-21T04:58:18.238Z,3.53
2022-10-21T05:00:50.527Z,3.80
2022-10-21T05:03:19.185Z,3.92
2022-10-21T05:05:49.987Z,4.60
2022-10-21T05:08:18.057Z,4.15
2022-10-21T05:10:45.969Z,3.85
2022-10-21T05:13:14.325Z,3.30
2022-10-21T05:15:42.620Z,4.00
2022-10-21T05:18:10.707Z,4.03
2022-10-21T05:20:38.722Z,4.28
2022-10-21T05:23:07.866Z,4.38
2022-10-21T05:25:35.737Z,4.32
2022-10-21T05:28:03.712Z,4.05
2022-10-21T05:30:31.549Z,4.05
2022-10-21T05:32:59.635Z,3.97
2022-10-21T05:35:27.582Z,4.60
2022-10-21T05:37:55.386Z,4.45
2022-10-21T05:40:25.095Z,4.70
2022-10-21T05:42:52.936Z,4.28
2022-10-21T05:45:21.074Z,4.15
2022-10-21T05:47:49.151Z,4.22
2022-10-21T05:50:17.354Z,4.55
2022-10-21T05:52:45.197Z,4.68
2022-10-21T05:55:13.481Z,4.68
2022-10-21T05:57:42.930Z,4.78
2022-10-21T06:00:12.642Z,4.82
2022-10-21T06:02:40.989Z,4.70
2022-10-21T06:05:09.389Z,4.85
2022-10-21T06:07:37.672Z,4.28
2022-10-21T06:10:06.726Z,4.35
2022-10-21T06:12:34.603Z,4.32
2022-10-21T06:15:03.869Z,4.80
2022-10-21T06:17:31.829Z,5.32
2022-10-21T06:20:00.222Z,4.45
2022-10-21T06:22:28.127Z,5.10
2022-10-21T06:24:56.109Z,4.53
2022-10-21T06:27:24.206Z,4.35
2022-10-21T06:29:52.262Z,4.07
2022-10-21T06:32:21.578Z,3.70
2022-10-21T06:34:49.521Z,4.30
2022-10-21T06:37:17.467Z,4.65
2022-10-21T06:39:45.437Z,4.72
2022-10-21T06:42:15.221Z,4.28
2022-10-21T06:44:48.255Z,4.60
2022-10-21T06:47:17.129Z,3.97
2022-10-21T06:49:46.354Z,4.55
2022-10-21T06:52:14.357Z,4.82
2022-10-21T06:54:42.850Z,4.32
2022-10-21T06:57:10.728Z,4.68
2022-10-21T06:59:38.721Z,4.43
2022-10-21T07:02:06.858Z,4.38
2022-10-21T07:04:34.751Z,5.05
2022-10-21T07:07:04.314Z,4.75
2022-10-21T07:09:32.318Z,4.22
2022-10-21T07:12:02.002Z,4.95
2022-10-21T07:14:30.082Z,4.80
2022-10-21T07:16:58.088Z,4.50
2022-10-21T07:19:25.959Z,4.63
2022-10-21T07:21:54.041Z,4.82
2022-10-21T07:24:23.261Z,5.13
2022-10-21T07:26:51.631Z,5.15
2022-10-21T07:29:19.965Z,4.95
2022-10-21T07:31:48.167Z,5.78
2022-10-21T07:34:16.221Z,5.03
2022-10-21T07:36:47.886Z,4.68
2022-10-21T07:39:18.209Z,5.07
2022-10-21T07:41:50.837Z,4.97
2022-10-21T07:44:19.960Z,4.85
2022-10-21T07:46:49.404Z,5.38
2022-10-21T07:49:18.806Z,4.78
2022-10-21T07:51:47.407Z,5.47
2022-10-21T07:54:15.720Z,4.35
2022-10-21T07:56:45.637Z,5.00
2022-10-21T07:59:15.625Z,4.40
2022-10-21T08:04:17.551Z,4.00
2022-10-21T08:06:46.463Z,4.00
2022-10-21T08:09:15.142Z,3.78
2022-10-21T08:11:43.618Z,4.78
2022-10-21T08:14:12.839Z,4.50
2022-10-21T08:16:43.103Z,4.80
2022-10-21T08:19:18.969Z,4.70
2022-10-21T08:21:47.150Z,4.40
2022-10-21T08:24:15.096Z,3.65
2022-10-21T08:26:43.257Z,4.53
2022-10-21T08:29:11.585Z,4.55
2022-10-21T08:31:41.790Z,3.60
2022-10-21T08:34:10.632Z,3.85
2022-10-21T08:36:39.082Z,4.13
2022-10-21T08:39:07.552Z,3.83
2022-10-21T08:41:54.100Z,3.50
2022-10-21T08:44:30.912Z,4.45
2022-10-21T08:47:06.204Z,3.90
2022-10-21T08:49:43.410Z,3.33
2022-10-21T08:52:15.520Z,3.60
2022-10-21T08:54:47.782Z,3.70
2022-10-21T08:57:15.862Z,3.80
2022-10-21T08:59:43.839Z,3.17
2022-10-21T09:02:29.179Z,3.95
2022-10-21T09:05:22.651Z,3.40
2022-10-21T09:08:02.477Z,3.20
2022-10-21T09:10:40.705Z,3.17
2022-10-21T09:13:16.556Z,3.38
2022-10-21T09:15:55.988Z,3.45
2022-10-21T09:18:38.233Z,3.42
2022-10-21T09:21:14.134Z,3.60
2022-10-21T09:23:52.474Z,3.15
2022-10-21T09:26:37.117Z,3.30
2022-10-21T09:29:28.926Z,2.90
2022-10-21T09:32:02.532Z,3.13
2022-10-21T09:34:46.162Z,3.28
2022-10-21T09:37:25.336Z,2.80
2022-10-21T09:40:02.384Z,3.22
2022-10-21T09:42:46.239Z,3.50
2022-10-21T09:45:25.702Z,3.03
2022-10-21T09:47:58.742Z,2.95
2022-10-21T09:50:29.801Z,3.08
2022-10-21T09:53:18.256Z,3.30
2022-10-21T09:55:56.115Z,2.63
2022-10-21T09:58:27.469Z,2.90
2022-10-21T10:00:55.966Z,3.30
2022-10-21T10:03:35.654Z,3.25
2022-10-21T10:06:09.086Z,3.38
2022-10-21T10:08:40.491Z,3.00
2022-10-21T10:11:18.123Z,3.08
2022-10-21T10:13:47.650Z,3.03
2022-10-21T10:16:19.511Z,3.20
2022-10-21T10:18:47.499Z,3.22
2022-10-21T10:21:18.421Z,2.40
2022-10-21T10:23:48.376Z,3.20
2022-10-21T10:26:22.946Z,2.72
2022-10-21T10:28:54.081Z,2.33
2022-10-21T10:31:31.659Z,2.70
2022-10-21T10:34:03.511Z,2.92
2022-10-21T10:36:34.594Z,2.92
2022-10-21T10:39:03.910Z,2.20
2022-10-21T10:41:37.326Z,2.95
2022-10-21T10:44:13.052Z,2.70
2022-10-21T10:46:41.740Z,2.60
2022-10-21T10:49:22.441Z,2.13
2022-10-21T10:52:05.648Z,2.47
2022-10-21T10:54:34.161Z,2.67
2022-10-21T10:57:05.291Z,2.50
2022-10-21T10:59:36.750Z,2.53
2022-10-21T11:02:15.995Z,2.97
2022-10-21T11:04:48.423Z,2.28
2022-10-21T11:07:23.314Z,2.20
2022-10-21T11:09:53.124Z,2.40
2022-10-21T11:12:26.416Z,2.45
2022-10-21T11:14:56.061Z,2.05
2022-10-21T11:17:30.718Z,2.13
2022-10-21T11:20:04.584Z,2.15
2022-10-21T11:22:42.438Z,2.33
2022-10-21T11:25:20.021Z,2.15
2022-10-21T11:27:57.605Z,2.33
2022-10-21T11:30:31.759Z,2.17
2022-10-21T11:33:04.914Z,2.15
2022-10-21T11:35:43.314Z,1.95
2022-10-21T11:38:28.000Z,1.90
2022-10-21T11:41:01.753Z,1.65
2022-10-21T11:43:33.762Z,1.77
2022-10-21T11:46:05.934Z,1.75
2022-10-21T11:48:43.316Z,1.17
2022-10-21T11:51:17.516Z,1.65
2022-10-21T11:53:56.207Z,1.52
2022-10-21T11:56:30.434Z,1.30
2022-10-21T11:59:05.682Z,1.13
2022-10-21T12:01:38.524Z,1.63
2022-10-21T12:04:24.952Z,1.17
2022-10-21T12:07:02.730Z,1.20
2022-10-21T12:09:32.604Z,1.48
2022-10-21T12:12:05.570Z,1.30
2022-10-21T12:14:35.741Z,1.00
2022-10-21T12:17:18.921Z,0.80
2022-10-21T12:19:48.831Z,1.50
2022-10-21T12:22:17.193Z,1.52
2022-10-21T12:24:48.137Z,0.93
2022-10-21T12:27:21.176Z,0.82
2022-10-21T12:29:54.258Z,1.25
2022-10-21T12:32:27.261Z,0.95
2022-10-21T12:34:56.012Z,1.00
2022-10-21T12:37:43.069Z,0.95
2022-10-21T12:40:12.907Z,1.10
2022-10-21T12:42:46.612Z,1.35
2022-10-21T12:45:27.571Z,1.33
2022-10-21T12:47:55.904Z,1.38
2022-10-21T12:50:29.899Z,1.00
2022-10-21T12:53:06.107Z,0.77
2022-10-21T12:55:40.191Z,0.60
2022-10-21T12:58:18.727Z,0.93
2022-10-21T13:00:52.531Z,0.95
2022-10-21T13:03:21.629Z,1.15
2022-10-21T13:06:01.994Z,1.40
2022-10-21T13:08:38.684Z,0.95
2022-10-21T13:11:14.326Z,0.93
2022-10-21T13:13:44.403Z,0.90
2022-10-21T13:16:43.416Z,1.00
2022-10-21T13:19:30.596Z,0.90
2022-10-21T13:22:02.675Z,1.25
2022-10-21T13:24:40.644Z,0.60
2022-10-21T13:27:24.192Z,0.73
2022-10-21T13:29:54.459Z,1.00
2022-10-21T13:32:28.172Z,0.70
2022-10-21T13:34:58.485Z,1.50
2022-10-21T13:37:29.115Z,1.38
2022-10-21T13:40:01.530Z,0.80
2022-10-21T13:42:33.495Z,0.60
2022-10-21T13:45:05.013Z,0.70
2022-10-21T13:47:34.133Z,0.80
2022-10-21T13:50:06.370Z,0.65
2022-10-21T13:52:34.737Z,0.60
2022-10-21T13:55:03.738Z,1.23
2022-10-21T13:57:33.512Z,0.80
2022-10-21T14:00:03.650Z,0.80
2022-10-21T14:02:36.100Z,0.90
2022-10-21T14:05:04.449Z,0.60
2022-10-21T14:07:37.066Z,0.73
2022-10-21T14:10:08.185Z,0.80
2022-10-21T14:12:41.956Z,0.70
2022-10-21T14:15:14.981Z,0.65
2022-10-21T14:17:46.108Z,0.70
2022-10-21T14:20:16.591Z,0.73
2022-10-21T14:22:51.749Z,0.80
2022-10-21T14:25:25.031Z,0.70
2022-10-21T14:27:53.465Z,0.65
2022-10-21T14:30:24.540Z,0.63
2022-10-21T14:32:59.372Z,0.73
2022-10-21T14:35:31.995Z,0.55
2022-10-21T14:38:04.098Z,0.90
2022-10-21T14:40:45.941Z,0.60
2022-10-21T14:43:19.999Z,0.75
2022-10-21T14:45:50.858Z,0.40
2022-10-21T14:48:23.747Z,0.75
2022-10-21T14:50:54.644Z,0.70
2022-10-21T14:53:24.304Z,0.60
2022-10-21T14:55:56.077Z,0.80
2022-10-21T14:58:25.437Z,0.60
2022-10-21T15:00:58.446Z,0.50
2022-10-21T15:03:39.641Z,0.60
2022-10-21T15:06:15.033Z,0.60
2022-10-21T15:08:44.836Z,0.63
2022-10-21T15:11:33.002Z,0.75
2022-10-21T15:14:23.823Z,0.60
2022-10-21T15:16:54.875Z,0.60
2022-10-21T15:19:24.617Z,0.65
2022-10-21T15:21:54.458Z,0.65
2022-10-21T15:24:25.113Z,0.88
2022-10-21T15:26:57.818Z,0.65
2022-10-21T15:29:28.375Z,0.43
2022-10-21T15:32:00.579Z,0.65
2022-10-21T15:34:29.145Z,1.20
2022-10-21T15:36:57.341Z,0.63
2022-10-21T15:39:26.521Z,0.35
2022-10-21T15:41:56.411Z,0.98
2022-10-21T15:44:27.333Z,0.90
2022-10-21T15:47:00.463Z,0.70
2022-10-21T15:49:40.294Z,0.50
2022-10-21T15:52:09.365Z,0.77
2022-10-21T15:54:37.642Z,0.52
2022-10-21T15:57:13.979Z,0.70
2022-10-21T15:59:42.541Z,0.90
2022-10-21T16:02:16.731Z,0.70
2022-10-21T16:04:47.325Z,0.60
2022-10-21T16:07:19.083Z,0.60
2022-10-21T16:09:47.568Z,0.50
2022-10-21T16:12:17.656Z,0.60
2022-10-21T16:14:45.833Z,1.00
2022-10-21T16:17:14.375Z,0.90
2022-10-21T16:19:43.589Z,0.65
2022-10-21T16:22:17.268Z,0.80
2022-10-21T16:24:45.692Z,0.80
2022-10-21T16:27:31.246Z,1.23
2022-10-21T16:30:11.845Z,1.30
2022-10-21T16:32:40.634Z,1.48
2022-10-21T16:35:10.591Z,1.70
2022-10-21T16:37:46.447Z,1.20
2022-10-21T16:40:18.072Z,1.17
2022-10-21T16:42:52.209Z,1.35
2022-10-21T16:45:21.162Z,1.50
2022-10-21T16:47:52.689Z,1.48
2022-10-21T16:50:24.497Z,0.80
2022-10-21T16:52:54.253Z,1.23
2022-10-21T16:55:22.531Z,1.30
2022-10-21T16:57:50.829Z,1.08
2022-10-21T17:00:22.111Z,1.58
2022-10-21T17:02:51.391Z,1.05
2022-10-21T17:05:19.746Z,1.13
2022-10-21T17:07:48.082Z,1.00
2022-10-21T17:10:18.090Z,1.00
2022-10-21T17:12:46.281Z,1.60
2022-10-21T17:15:18.043Z,1.50
2022-10-21T17:17:46.202Z,1.75
2022-10-21T17:20:15.644Z,0.90
2022-10-21T17:22:43.853Z,1.60
2022-10-21T17:25:17.435Z,1.80
2022-10-21T17:27:46.974Z,1.45
2022-10-21T17:30:15.233Z,1.52
2022-10-21T17:32:43.636Z,1.35
2022-10-21T17:35:18.476Z,1.35
2022-10-21T17:37:47.762Z,1.60
2022-10-21T17:40:16.983Z,1.67
2022-10-21T17:42:46.975Z,1.67
2022-10-21T17:45:17.026Z,1.50
2022-10-21T17:47:45.796Z,1.73
2022-10-21T17:50:15.043Z,1.88
2022-10-21T17:52:43.617Z,2.10
2022-10-21T17:55:13.387Z,2.03
2022-10-21T17:57:41.686Z,1.65
2022-10-21T18:00:17.526Z,2.20
2022-10-21T18:02:45.943Z,1.80
2022-10-21T18:05:14.150Z,2.08
2022-10-21T18:07:44.495Z,2.03
2022-10-21T18:10:13.058Z,2.20
2022-10-21T18:12:42.970Z,2.00
2022-10-21T18:15:12.996Z,1.50
2022-10-21T18:17:42.214Z,2.13
2022-10-21T18:20:12.645Z,1.85
2022-10-21T18:22:41.207Z,1.65
2022-10-21T18:25:10.537Z,1.40
2022-10-21T18:27:40.084Z,2.00
2022-10-21T18:30:11.749Z,2.53
2022-10-21T18:32:41.932Z,1.40
2022-10-21T18:35:12.810Z,1.67
2022-10-21T18:37:41.852Z,1.50
2022-10-21T18:40:11.626Z,1.75
2022-10-21T18:42:48.221Z,1.80
2022-10-21T18:45:16.573Z,1.73
2022-10-21T18:47:47.482Z,1.85
2022-10-21T18:50:16.354Z,1.92
2022-10-21T18:52:44.934Z,1.52
2022-10-21T18:55:13.497Z,1.45
2022-10-21T18:57:49.549Z,1.88
2022-10-21T19:00:18.109Z,1.80
2022-10-21T19:02:47.816Z,1.70
2022-10-21T19:05:16.100Z,1.55
2022-10-21T19:07:44.398Z,1.38
2022-10-21T19:10:13.900Z,1.60
2022-10-21T19:12:42.168Z,1.25
2022-10-21T19:15:11.008Z,1.40
2022-10-21T19:17:40.979Z,1.77
2022-10-21T19:20:11.789Z,1.40
2022-10-21T19:22:42.067Z,1.23
2022-10-21T19:25:10.718Z,1.40
2022-10-21T19:27:39.249Z,1.52
2022-10-21T19:30:08.240Z,1.52
2022-10-21T19:32:36.805Z,1.38
2022-10-21T19:35:05.394Z,0.95
2022-10-21T19:37:35.205Z,1.35
2022-10-21T19:40:03.642Z,1.40
2022-10-21T19:42:33.233Z,1.52
2022-10-21T19:45:01.504Z,1.30
2022-10-21T19:47:31.173Z,1.40
2022-10-21T19:49:59.480Z,1.27
2022-10-21T19:52:27.771Z,1.40
2022-10-21T19:54:57.379Z,1.35
2022-10-21T19:57:25.682Z,1.83
2022-10-21T19:59:54.221Z,1.70
2022-10-21T20:02:22.676Z,2.15
2022-10-21T20:04:50.921Z,1.42
2022-10-21T20:07:19.406Z,1.40
2022-10-21T20:09:47.694Z,1.90
2022-10-21T20:12:17.336Z,1.80
2022-10-21T20:14:45.821Z,1.70
2022-10-21T20:17:17.475Z,1.92
2022-10-21T20:19:48.364Z,2.13
2022-10-21T20:22:16.622Z,1.98
2022-10-21T20:24:46.341Z,2.03
2022-10-21T20:27:15.129Z,2.00
2022-10-21T20:29:45.037Z,2.10
2022-10-21T20:32:13.673Z,1.92
2022-10-21T20:34:43.467Z,1.70
2022-10-21T20:37:11.757Z,1.90
2022-10-21T20:39:43.067Z,2.70
2022-10-21T20:42:11.802Z,2.08
2022-10-21T20:44:40.254Z,2.70
2022-10-21T20:47:10.002Z,1.83
2022-10-21T20:49:38.718Z,2.58
2022-10-21T20:52:06.914Z,2.30
2022-10-21T20:54:35.193Z,2.40
2022-10-21T20:57:03.521Z,2.05
2022-10-21T20:59:31.760Z,2.38
2022-10-21T21:02:00.079Z,2.15
2022-10-21T21:04:29.726Z,1.80
2022-10-21T21:06:57.980Z,2.17
2022-10-21T21:09:50.318Z,2.50
2022-10-21T21:12:17.006Z,2.58
2022-10-21T21:14:47.372Z,2.17
2022-10-21T21:17:15.766Z,2.00
2022-10-21T21:19:45.723Z,1.73
2022-10-21T21:22:13.969Z,2.55
2022-10-21T21:24:43.404Z,2.17
2022-10-21T21:27:13.530Z,1.88
2022-10-21T21:29:41.733Z,2.45
2022-10-21T21:32:10.173Z,2.10
2022-10-21T21:34:40.728Z,2.20
2022-10-21T21:37:10.569Z,1.70
2022-10-21T21:39:38.828Z,1.95
2022-10-21T21:42:07.094Z,1.83
2022-10-21T21:44:35.534Z,1.70
2022-10-21T21:47:03.790Z,1.75
2022-10-21T21:49:31.992Z,2.22
2022-10-21T21:52:00.252Z,2.00
2022-10-21T21:54:29.863Z,2.08
2022-10-21T21:57:23.187Z,2.00
2022-10-21T21:59:47.102Z,1.90
2022-10-21T22:02:15.430Z,2.10
2022-10-21T22:04:44.807Z,2.22
2022-10-21T22:07:13.272Z,2.42
2022-10-21T22:09:42.866Z,1.80
2022-10-21T22:12:14.784Z,1.92
2022-10-21T22:14:43.672Z,1.90
2022-10-21T22:17:11.943Z,1.80
2022-10-21T22:19:40.162Z,1.90
2022-10-21T22:22:08.818Z,1.90
2022-10-21T22:24:39.326Z,1.85
2022-10-21T22:27:08.839Z,2.00
2022-10-21T22:29:37.160Z,1.70
2022-10-21T22:32:05.968Z,2.08
2022-10-21T22:34:34.241Z,2.33
2022-10-21T22:37:02.716Z,1.70
2022-10-21T22:39:30.913Z,1.80
2022-10-21T22:41:59.119Z,1.80
2022-10-21T22:44:28.986Z,2.00
2022-10-21T22:46:57.159Z,2.33
2022-10-21T22:49:25.413Z,2.03
2022-10-21T22:51:54.331Z,1.95
2022-10-21T22:54:46.440Z,1.85
2022-10-21T22:57:11.696Z,1.80
2022-10-21T22:59:43.982Z,1.67
2022-10-21T23:02:12.737Z,1.90
2022-10-21T23:04:40.963Z,1.88
2022-10-21T23:07:09.617Z,1.67
2022-10-21T23:09:37.939Z,1.73
2022-10-21T23:12:06.464Z,1.90
2022-10-21T23:14:34.731Z,1.60
2022-10-21T23:17:04.435Z,1.92
2022-10-21T23:19:32.686Z,1.83
2022-10-21T23:22:00.923Z,2.08
2022-10-21T23:24:29.233Z,1.67
2022-10-21T23:27:00.523Z,1.50
2022-10-21T23:29:32.031Z,1.67
2022-10-21T23:32:00.400Z,2.00
2022-10-21T23:34:30.062Z,1.95
2022-10-21T23:36:58.413Z,2.15
2022-10-21T23:39:26.652Z,1.85
2022-10-21T23:41:55.061Z,2.08
2022-10-21T23:44:23.286Z,2.10
2022-10-21T23:46:51.643Z,1.65
2022-10-21T23:49:19.918Z,1.98
2022-10-21T23:51:49.463Z,1.90
2022-10-21T23:54:17.857Z,1.70
2022-10-21T23:56:46.455Z,1.63
2022-10-21T23:59:14.781Z,1.88
